sensor_id;sensor_type;location;lat;lon;timestamp;pressure;altitude;pressure_sealevel;temperature;humidity
31121;BME280;17770;45.966;13.632;2023-05-08T00:01:30;100658.13;;;25.74;49.85
31121;BME280;17770;45.966;13.632;2023-05-08T00:03:56;100668.41;;;25.67;49.55
31121;BME280;17770;45.966;13.632;2023-05-08T00:06:22;100662.03;;;25.70;49.45
31121;BME280;17770;45.966;13.632;2023-05-08T00:08:48;100658.53;;;25.69;49.80
31121;BME280;17770;45.966;13.632;2023-05-08T00:11:14;100664.34;;;25.63;49.86
31121;BME280;17770;45.966;13.632;2023-05-08T00:13:40;100662.81;;;25.61;49.76
31121;BME280;17770;45.966;13.632;2023-05-08T00:16:06;100651.38;;;25.60;49.55
31121;BME280;17770;45.966;13.632;2023-05-08T00:18:34;100652.09;;;25.62;49.83
31121;BME280;17770;45.966;13.632;2023-05-08T00:21:02;100648.47;;;25.63;50.00
31121;BME280;17770;45.966;13.632;2023-05-08T00:23:28;100646.69;;;25.64;50.01
31121;BME280;17770;45.966;13.632;2023-05-08T00:25:53;100652.94;;;25.63;49.61
31121;BME280;17770;45.966;13.632;2023-05-08T00:28:19;100659.19;;;25.62;49.72
31121;BME280;17770;45.966;13.632;2023-05-08T00:30:45;100651.25;;;25.62;49.94
31121;BME280;17770;45.966;13.632;2023-05-08T00:33:11;100658.38;;;25.61;50.01
31121;BME280;17770;45.966;13.632;2023-05-08T00:35:37;100652.50;;;25.58;50.05
31121;BME280;17770;45.966;13.632;2023-05-08T00:38:05;100654.16;;;25.59;49.92
31121;BME280;17770;45.966;13.632;2023-05-08T00:40:31;100646.38;;;25.57;49.60
31121;BME280;17770;45.966;13.632;2023-05-08T00:42:57;100655.97;;;25.58;49.47
31121;BME280;17770;45.966;13.632;2023-05-08T00:45:23;100654.31;;;25.57;49.85
31121;BME280;17770;45.966;13.632;2023-05-08T00:47:49;100646.53;;;25.56;49.92
31121;BME280;17770;45.966;13.632;2023-05-08T00:50:15;100656.38;;;25.54;50.05
31121;BME280;17770;45.966;13.632;2023-05-08T00:52:41;100656.09;;;25.57;49.89
31121;BME280;17770;45.966;13.632;2023-05-08T00:55:07;100647.22;;;25.58;49.46
31121;BME280;17770;45.966;13.632;2023-05-08T00:57:33;100649.88;;;25.58;49.98
31121;BME280;17770;45.966;13.632;2023-05-08T01:00:00;100652.38;;;25.59;49.58
31121;BME280;17770;45.966;13.632;2023-05-08T01:02:27;100638.19;;;25.60;49.30
31121;BME280;17770;45.966;13.632;2023-05-08T01:04:55;100633.16;;;25.57;49.52
31121;BME280;17770;45.966;13.632;2023-05-08T01:07:21;100637.59;;;25.57;49.27
31121;BME280;17770;45.966;13.632;2023-05-08T01:09:47;100630.53;;;25.57;49.88
31121;BME280;17770;45.966;13.632;2023-05-08T01:12:25;100630.53;;;25.57;49.78
31121;BME280;17770;45.966;13.632;2023-05-08T01:27:53;100641.06;;;25.48;49.59
31121;BME280;17770;45.966;13.632;2023-05-08T01:30:33;100639.38;;;25.47;49.89
31121;BME280;17770;45.966;13.632;2023-05-08T01:35:52;100636.31;;;25.42;49.57
31121;BME280;17770;45.966;13.632;2023-05-08T01:45:45;100637.53;;;25.38;49.63
31121;BME280;17770;45.966;13.632;2023-05-08T01:48:16;100636.56;;;25.39;50.17
31121;BME280;17770;45.966;13.632;2023-05-08T01:50:46;100640.31;;;25.36;49.99
31121;BME280;17770;45.966;13.632;2023-05-08T01:53:19;100633.25;;;25.37;49.91
31121;BME280;17770;45.966;13.632;2023-05-08T01:55:46;100638.63;;;25.35;50.20
31121;BME280;17770;45.966;13.632;2023-05-08T01:58:13;100650.03;;;25.36;50.10
31121;BME280;17770;45.966;13.632;2023-05-08T02:00:39;100651.94;;;25.34;50.10
31121;BME280;17770;45.966;13.632;2023-05-08T02:03:06;100661.59;;;25.35;49.84
31121;BME280;17770;45.966;13.632;2023-05-08T02:05:33;100661.13;;;25.30;50.06
31121;BME280;17770;45.966;13.632;2023-05-08T02:08:01;100659.19;;;25.32;50.18
31121;BME280;17770;45.966;13.632;2023-05-08T02:10:27;100659.41;;;25.29;49.75
31121;BME280;17770;45.966;13.632;2023-05-08T02:12:54;100649.69;;;25.29;49.87
31121;BME280;17770;45.966;13.632;2023-05-08T02:15:20;100646.22;;;25.29;49.88
31121;BME280;17770;45.966;13.632;2023-05-08T02:17:47;100649.25;;;25.24;49.85
31121;BME280;17770;45.966;13.632;2023-05-08T02:20:13;100648.69;;;25.21;49.91
31121;BME280;17770;45.966;13.632;2023-05-08T02:22:43;100648.19;;;25.27;50.26
31121;BME280;17770;45.966;13.632;2023-05-08T02:25:11;100641.06;;;25.27;49.97
31121;BME280;17770;45.966;13.632;2023-05-08T02:27:39;100639.28;;;25.28;49.74
31121;BME280;17770;45.966;13.632;2023-05-08T02:30:09;100637.63;;;25.27;49.98
31121;BME280;17770;45.966;13.632;2023-05-08T02:32:37;100642.03;;;25.26;49.91
31121;BME280;17770;45.966;13.632;2023-05-08T02:35:03;100642.19;;;25.25;49.80
31121;BME280;17770;45.966;13.632;2023-05-08T02:37:30;100642.19;;;25.25;49.79
31121;BME280;17770;45.966;13.632;2023-05-08T02:39:58;100649.25;;;25.24;49.83
31121;BME280;17770;45.966;13.632;2023-05-08T02:42:26;100656.34;;;25.24;49.99
31121;BME280;17770;45.966;13.632;2023-05-08T02:44:52;100655.66;;;25.22;50.31
31121;BME280;17770;45.966;13.632;2023-05-08T02:47:20;100645.91;;;25.22;49.82
31121;BME280;17770;45.966;13.632;2023-05-08T02:49:59;100650.38;;;25.22;49.87
31121;BME280;17770;45.966;13.632;2023-05-08T02:52:29;100651.31;;;25.21;50.21
31121;BME280;17770;45.966;13.632;2023-05-08T02:55:04;100647.03;;;25.20;50.31
31121;BME280;17770;45.966;13.632;2023-05-08T03:00:26;100648.81;;;25.19;49.76
31121;BME280;17770;45.966;13.632;2023-05-08T03:02:55;100646.19;;;25.19;49.81
31121;BME280;17770;45.966;13.632;2023-05-08T03:05:25;100657.00;;;25.16;50.26
31121;BME280;17770;45.966;13.632;2023-05-08T03:07:54;100655.06;;;25.18;50.29
31121;BME280;17770;45.966;13.632;2023-05-08T03:10:24;100655.22;;;25.17;49.82
31121;BME280;17770;45.966;13.632;2023-05-08T03:12:52;100658.78;;;25.16;50.19
31121;BME280;17770;45.966;13.632;2023-05-08T03:15:22;100663.41;;;25.14;50.09
31121;BME280;17770;45.966;13.632;2023-05-08T03:17:57;100665.19;;;25.13;49.76
31121;BME280;17770;45.966;13.632;2023-05-08T03:20:29;100666.97;;;25.13;50.22
31121;BME280;17770;45.966;13.632;2023-05-08T03:22:55;100663.75;;;25.09;50.02
31121;BME280;17770;45.966;13.632;2023-05-08T03:25:22;100670.88;;;25.09;50.11
31121;BME280;17770;45.966;13.632;2023-05-08T03:27:48;100677.94;;;25.08;50.21
31121;BME280;17770;45.966;13.632;2023-05-08T03:30:15;100676.25;;;25.07;50.42
31121;BME280;17770;45.966;13.632;2023-05-08T03:32:45;100677.09;;;25.08;50.25
31121;BME280;17770;45.966;13.632;2023-05-08T03:35:12;100678.88;;;25.07;49.99
31121;BME280;17770;45.966;13.632;2023-05-08T03:37:39;100684.16;;;25.07;50.23
31121;BME280;17770;45.966;13.632;2023-05-08T03:40:05;100684.31;;;25.06;50.32
31121;BME280;17770;45.966;13.632;2023-05-08T03:42:33;100683.50;;;25.05;50.06
31121;BME280;17770;45.966;13.632;2023-05-08T03:44:59;100688.91;;;25.04;49.99
31121;BME280;17770;45.966;13.632;2023-05-08T03:47:27;100690.69;;;25.03;49.86
31121;BME280;17770;45.966;13.632;2023-05-08T03:49:53;100692.47;;;25.03;50.14
31121;BME280;17770;45.966;13.632;2023-05-08T03:52:19;100696.09;;;25.02;50.46
31121;BME280;17770;45.966;13.632;2023-05-08T03:54:45;100700.66;;;25.00;50.50
31121;BME280;17770;45.966;13.632;2023-05-08T03:57:12;100704.03;;;25.02;50.49
31121;BME280;17770;45.966;13.632;2023-05-08T03:59:50;100704.16;;;25.00;50.41
31121;BME280;17770;45.966;13.632;2023-05-08T04:02:23;100710.38;;;24.99;50.38
31121;BME280;17770;45.966;13.632;2023-05-08T04:04:52;100720.00;;;25.00;50.15
31121;BME280;17770;45.966;13.632;2023-05-08T04:07:36;100710.50;;;24.98;50.41
31121;BME280;17770;45.966;13.632;2023-05-08T04:10:11;100710.63;;;24.96;50.54
31121;BME280;17770;45.966;13.632;2023-05-08T04:15:25;100731.75;;;24.96;50.36
31121;BME280;17770;45.966;13.632;2023-05-08T04:17:54;100729.13;;;24.96;50.47
31121;BME280;17770;45.966;13.632;2023-05-08T04:20:23;100725.53;;;24.97;50.10
31121;BME280;17770;45.966;13.632;2023-05-08T04:22:51;100730.91;;;24.96;50.16
31121;BME280;17770;45.966;13.632;2023-05-08T04:25:17;100734.41;;;24.96;50.11
31121;BME280;17770;45.966;13.632;2023-05-08T04:27:45;100737.88;;;24.97;50.37
31121;BME280;17770;45.966;13.632;2023-05-08T04:30:12;100734.53;;;24.95;49.99
31121;BME280;17770;45.966;13.632;2023-05-08T04:32:38;100739.81;;;24.95;50.44
31121;BME280;17770;45.966;13.632;2023-05-08T04:35:05;100739.94;;;24.93;50.21
31121;BME280;17770;45.966;13.632;2023-05-08T04:37:31;100733.81;;;24.93;50.48
31121;BME280;17770;45.966;13.632;2023-05-08T04:40:00;100742.56;;;24.93;50.44
31121;BME280;17770;45.966;13.632;2023-05-08T04:42:26;100741.00;;;24.91;50.08
31121;BME280;17770;45.966;13.632;2023-05-08T04:44:55;100747.13;;;24.91;50.61
31121;BME280;17770;45.966;13.632;2023-05-08T04:47:20;100749.91;;;24.90;50.14
31121;BME280;17770;45.966;13.632;2023-05-08T04:49:48;100754.19;;;24.91;50.15
31121;BME280;17770;45.966;13.632;2023-05-08T04:52:14;100758.78;;;24.89;50.55
31121;BME280;17770;45.966;13.632;2023-05-08T04:54:40;100758.78;;;24.89;50.35
31121;BME280;17770;45.966;13.632;2023-05-08T04:57:06;100756.28;;;24.87;50.31
31121;BME280;17770;45.966;13.632;2023-05-08T04:59:33;100761.56;;;24.87;50.53
31121;BME280;17770;45.966;13.632;2023-05-08T05:01:59;100756.41;;;24.86;50.32
31121;BME280;17770;45.966;13.632;2023-05-08T05:04:28;100756.41;;;24.86;50.46
31121;BME280;17770;45.966;13.632;2023-05-08T05:06:55;100748.59;;;24.84;50.21
31121;BME280;17770;45.966;13.632;2023-05-08T05:09:21;100751.13;;;24.86;50.64
31121;BME280;17770;45.966;13.632;2023-05-08T05:11:48;100753.88;;;24.84;50.35
31121;BME280;17770;45.966;13.632;2023-05-08T05:14:14;100755.69;;;24.84;50.49
31121;BME280;17770;45.966;13.632;2023-05-08T05:16:39;100755.69;;;24.84;50.66
31121;BME280;17770;45.966;13.632;2023-05-08T05:19:06;100750.69;;;24.81;50.59
31121;BME280;17770;45.966;13.632;2023-05-08T05:21:32;100751.75;;;24.78;50.68
31121;BME280;17770;45.966;13.632;2023-05-08T05:23:58;100746.34;;;24.80;50.12
31121;BME280;17770;45.966;13.632;2023-05-08T05:26:24;100742.84;;;24.79;50.40
31121;BME280;17770;45.966;13.632;2023-05-08T05:28:50;100746.47;;;24.78;50.72
31121;BME280;17770;45.966;13.632;2023-05-08T05:31:16;100743.13;;;24.76;50.63
31121;BME280;17770;45.966;13.632;2023-05-08T05:33:42;100737.72;;;24.78;50.63
31121;BME280;17770;45.966;13.632;2023-05-08T05:36:08;100737.03;;;24.76;50.42
31121;BME280;17770;45.966;13.632;2023-05-08T05:38:34;100741.44;;;24.75;50.47
31121;BME280;17770;45.966;13.632;2023-05-08T05:41:00;100738.09;;;24.73;50.79
31121;BME280;17770;45.966;13.632;2023-05-08T05:43:25;100736.44;;;24.72;50.47
31121;BME280;17770;45.966;13.632;2023-05-08T05:45:51;100735.47;;;24.73;50.53
31121;BME280;17770;45.966;13.632;2023-05-08T05:48:18;100738.94;;;24.74;50.35
31121;BME280;17770;45.966;13.632;2023-05-08T05:50:44;100736.44;;;24.72;50.57
31121;BME280;17770;45.966;13.632;2023-05-08T05:53:12;100740.72;;;24.73;50.55
31121;BME280;17770;45.966;13.632;2023-05-08T05:55:38;100730.31;;;24.72;50.74
31121;BME280;17770;45.966;13.632;2023-05-08T05:58:04;100738.34;;;24.70;50.35
31121;BME280;17770;45.966;13.632;2023-05-08T06:00:31;100739.19;;;24.71;50.64
31121;BME280;17770;45.966;13.632;2023-05-08T06:02:58;100740.13;;;24.70;50.71
31121;BME280;17770;45.966;13.632;2023-05-08T06:05:24;100739.19;;;24.71;50.47
31121;BME280;17770;45.966;13.632;2023-05-08T06:07:50;100742.78;;;24.70;50.31
31121;BME280;17770;45.966;13.632;2023-05-08T06:10:16;100745.53;;;24.68;50.79
31121;BME280;17770;45.966;13.632;2023-05-08T06:12:42;100750.91;;;24.67;50.46
31121;BME280;17770;45.966;13.632;2023-05-08T06:15:09;100748.19;;;24.68;50.50
31121;BME280;17770;45.966;13.632;2023-05-08T06:17:35;100756.09;;;24.68;50.54
31121;BME280;17770;45.966;13.632;2023-05-08T06:20:01;100756.19;;;24.67;50.75
31121;BME280;17770;45.966;13.632;2023-05-08T06:22:27;100754.31;;;24.69;50.56
31121;BME280;17770;45.966;13.632;2023-05-08T06:24:54;100760.75;;;24.65;51.13
31121;BME280;17770;45.966;13.632;2023-05-08T06:27:21;100764.97;;;24.67;50.79
31121;BME280;17770;45.966;13.632;2023-05-08T06:29:48;100760.63;;;24.66;50.91
31121;BME280;17770;45.966;13.632;2023-05-08T06:32:16;100762.44;;;24.66;50.93
31121;BME280;17770;45.966;13.632;2023-05-08T06:34:42;100758.13;;;24.65;50.75
31121;BME280;17770;45.966;13.632;2023-05-08T06:37:08;100760.75;;;24.65;50.55
31121;BME280;17770;45.966;13.632;2023-05-08T06:39:34;100760.88;;;24.63;50.84
31121;BME280;17770;45.966;13.632;2023-05-08T06:42:00;100763.50;;;24.63;50.64
31121;BME280;17770;45.966;13.632;2023-05-08T06:44:29;100771.56;;;24.62;50.93
31121;BME280;17770;45.966;13.632;2023-05-08T06:46:55;100760.03;;;24.63;50.68
31121;BME280;17770;45.966;13.632;2023-05-08T06:49:21;100767.94;;;24.63;51.05
31121;BME280;17770;45.966;13.632;2023-05-08T06:51:47;100763.66;;;24.62;51.05
31121;BME280;17770;45.966;13.632;2023-05-08T06:54:13;100771.56;;;24.62;50.74
31121;BME280;17770;45.966;13.632;2023-05-08T06:56:39;100774.19;;;24.62;51.03
31121;BME280;17770;45.966;13.632;2023-05-08T06:59:05;100783.91;;;24.61;50.75
31121;BME280;17770;45.966;13.632;2023-05-08T07:01:30;100782.09;;;24.62;50.76
31121;BME280;17770;45.966;13.632;2023-05-08T07:03:56;100786.66;;;24.60;51.16
31121;BME280;17770;45.966;13.632;2023-05-08T07:06:22;100782.25;;;24.60;50.94
31121;BME280;17770;45.966;13.632;2023-05-08T07:08:48;100795.44;;;24.60;51.01
31121;BME280;17770;45.966;13.632;2023-05-08T07:11:14;100781.38;;;24.60;50.70
31121;BME280;17770;45.966;13.632;2023-05-08T07:13:40;100786.66;;;24.60;50.78
31121;BME280;17770;45.966;13.632;2023-05-08T07:16:10;100791.00;;;24.61;50.72
31121;BME280;17770;45.966;13.632;2023-05-08T07:18:36;100792.06;;;24.58;50.67
31121;BME280;17770;45.966;13.632;2023-05-08T07:21:02;100800.69;;;24.60;50.91
31121;BME280;17770;45.966;13.632;2023-05-08T07:23:28;100795.44;;;24.60;50.66
31121;BME280;17770;45.966;13.632;2023-05-08T07:25:54;100791.94;;;24.60;50.63
31121;BME280;17770;45.966;13.632;2023-05-08T07:28:20;100798.91;;;24.61;50.63
31121;BME280;17770;45.966;13.632;2023-05-08T07:30:46;100798.19;;;24.59;51.04
31121;BME280;17770;45.966;13.632;2023-05-08T07:33:12;100804.31;;;24.59;50.71
31121;BME280;17770;45.966;13.632;2023-05-08T07:35:38;100803.47;;;24.59;50.68
31121;BME280;17770;45.966;13.632;2023-05-08T07:38:04;100794.56;;;24.60;50.82
31121;BME280;17770;45.966;13.632;2023-05-08T07:40:30;100800.69;;;24.60;51.01
31121;BME280;17770;45.966;13.632;2023-05-08T07:42:56;100802.38;;;24.61;50.65
31121;BME280;17770;45.966;13.632;2023-05-08T07:45:21;100802.50;;;24.60;51.11
31121;BME280;17770;45.966;13.632;2023-05-08T07:47:48;100800.81;;;24.59;51.10
31121;BME280;17770;45.966;13.632;2023-05-08T07:50:14;100796.41;;;24.59;50.60
31121;BME280;17770;45.966;13.632;2023-05-08T07:52:40;100801.34;;;24.53;51.09
31121;BME280;17770;45.966;13.632;2023-05-08T07:55:06;100802.88;;;24.55;50.81
31121;BME280;17770;45.966;13.632;2023-05-08T07:57:36;100808.28;;;24.54;51.10
31121;BME280;17770;45.966;13.632;2023-05-08T08:00:03;100801.09;;;24.56;51.08
31121;BME280;17770;45.966;13.632;2023-05-08T08:02:39;100792.56;;;24.52;51.13
31121;BME280;17770;45.966;13.632;2023-05-08T08:05:05;100795.09;;;24.54;51.16
31121;BME280;17770;45.966;13.632;2023-05-08T08:07:31;100800.22;;;24.55;50.76
31121;BME280;17770;45.966;13.632;2023-05-08T08:09:57;100800.34;;;24.54;51.10
31121;BME280;17770;45.966;13.632;2023-05-08T08:12:24;100807.44;;;24.53;51.06
31121;BME280;17770;45.966;13.632;2023-05-08T08:14:49;100795.94;;;24.54;51.09
31121;BME280;17770;45.966;13.632;2023-05-08T08:17:16;100801.22;;;24.54;50.87
31121;BME280;17770;45.966;13.632;2023-05-08T08:19:41;100793.50;;;24.51;51.03
31121;BME280;17770;45.966;13.632;2023-05-08T08:22:07;100805.03;;;24.50;51.20
31121;BME280;17770;45.966;13.632;2023-05-08T08:24:33;100797.97;;;24.51;50.96
31121;BME280;17770;45.966;13.632;2023-05-08T08:26:59;100796.06;;;24.53;51.09
31121;BME280;17770;45.966;13.632;2023-05-08T08:29:25;100793.63;;;24.49;50.97
31121;BME280;17770;45.966;13.632;2023-05-08T08:31:51;100800.59;;;24.51;51.25
31121;BME280;17770;45.966;13.632;2023-05-08T08:34:17;100802.28;;;24.52;51.47
31121;BME280;17770;45.966;13.632;2023-05-08T08:36:43;100803.97;;;24.53;50.87
31121;BME280;17770;45.966;13.632;2023-05-08T08:39:09;100806.69;;;24.51;51.18
31121;BME280;17770;45.966;13.632;2023-05-08T08:41:37;100797.97;;;24.51;50.92
31121;BME280;17770;45.966;13.632;2023-05-08T08:44:04;100796.16;;;24.51;50.93
31121;BME280;17770;45.966;13.632;2023-05-08T08:46:30;100805.88;;;24.51;51.26
31121;BME280;17770;45.966;13.632;2023-05-08T08:48:58;100797.84;;;24.52;51.37
31121;BME280;17770;45.966;13.632;2023-05-08T08:51:27;100799.63;;;24.52;51.17
31121;BME280;17770;45.966;13.632;2023-05-08T08:54:29;100806.81;;;24.49;50.99
31121;BME280;17770;45.966;13.632;2023-05-08T08:56:48;100795.34;;;24.51;51.09
31121;BME280;17770;45.966;13.632;2023-05-08T08:59:15;100803.38;;;24.49;51.26
31121;BME280;17770;45.966;13.632;2023-05-08T09:01:43;100802.41;;;24.50;51.20
31121;BME280;17770;45.966;13.632;2023-05-08T09:04:09;100809.34;;;24.51;50.96
31121;BME280;17770;45.966;13.632;2023-05-08T09:06:35;100806.00;;;24.49;51.37
31121;BME280;17770;45.966;13.632;2023-05-08T09:09:02;100802.41;;;24.50;51.29
31121;BME280;17770;45.966;13.632;2023-05-08T09:11:28;100809.34;;;24.51;51.35
31121;BME280;17770;45.966;13.632;2023-05-08T09:13:54;100810.19;;;24.52;51.24
31121;BME280;17770;45.966;13.632;2023-05-08T09:16:20;100805.03;;;24.50;51.32
31121;BME280;17770;45.966;13.632;2023-05-08T09:18:47;100797.13;;;24.50;51.07
31121;BME280;17770;45.966;13.632;2023-05-08T09:21:13;100802.28;;;24.52;51.18
31121;BME280;17770;45.966;13.632;2023-05-08T09:26:27;100808.66;;;24.49;51.10
31121;BME280;17770;45.966;13.632;2023-05-08T09:29:15;100811.97;;;24.51;50.94
31121;BME280;17770;45.966;13.632;2023-05-08T09:34:09;100818.09;;;24.52;51.47
31121;BME280;17770;45.966;13.632;2023-05-08T09:36:35;100819.88;;;24.51;51.03
31121;BME280;17770;45.966;13.632;2023-05-08T09:39:02;100818.94;;;24.52;51.20
31121;BME280;17770;45.966;13.632;2023-05-08T09:41:28;100821.47;;;24.54;51.29
31121;BME280;17770;45.966;13.632;2023-05-08T09:44:03;100817.25;;;24.51;51.26
31121;BME280;17770;45.966;13.632;2023-05-08T09:46:30;100815.47;;;24.52;51.00
31121;BME280;17770;45.966;13.632;2023-05-08T09:48:57;100816.31;;;24.52;51.12
31121;BME280;17770;45.966;13.632;2023-05-08T09:51:24;100811.88;;;24.53;51.08
31121;BME280;17770;45.966;13.632;2023-05-08T09:53:54;100814.41;;;24.54;50.71
31121;BME280;17770;45.966;13.632;2023-05-08T09:58:55;100816.19;;;24.54;51.23
31121;BME280;17770;45.966;13.632;2023-05-08T10:01:28;100816.06;;;24.55;51.33
31121;BME280;17770;45.966;13.632;2023-05-08T10:03:54;100808.16;;;24.55;50.86
31121;BME280;17770;45.966;13.632;2023-05-08T10:06:20;100819.53;;;24.56;50.89
31121;BME280;17770;45.966;13.632;2023-05-08T10:08:46;100819.53;;;24.56;50.96
31121;BME280;17770;45.966;13.632;2023-05-08T10:11:16;100820.00;;;24.49;50.99
31121;BME280;17770;45.966;13.632;2023-05-08T10:13:43;100816.19;;;24.54;51.17
31121;BME280;17770;45.966;13.632;2023-05-08T10:16:17;100816.78;;;24.57;50.78
31121;BME280;17770;45.966;13.632;2023-05-08T10:18:47;100816.78;;;24.57;51.09
31121;BME280;17770;45.966;13.632;2023-05-08T10:21:14;100822.06;;;24.57;51.26
31121;BME280;17770;45.966;13.632;2023-05-08T10:23:41;100823.97;;;24.55;51.39
31121;BME280;17770;45.966;13.632;2023-05-08T10:26:11;100829.13;;;24.57;51.13
31121;BME280;17770;45.966;13.632;2023-05-08T10:29:04;100823.84;;;24.57;51.22
31121;BME280;17770;45.966;13.632;2023-05-08T10:31:33;100822.91;;;24.58;51.21
31121;BME280;17770;45.966;13.632;2023-05-08T10:34:00;100821.22;;;24.57;51.24
31121;BME280;17770;45.966;13.632;2023-05-08T10:36:26;100827.09;;;24.60;51.14
31121;BME280;17770;45.966;13.632;2023-05-08T10:38:53;100813.91;;;24.60;51.13
31121;BME280;17770;45.966;13.632;2023-05-08T10:41:19;100813.91;;;24.60;51.08
31121;BME280;17770;45.966;13.632;2023-05-08T10:43:46;100815.56;;;24.61;51.07
31121;BME280;17770;45.966;13.632;2023-05-08T10:54:24;100822.66;;;24.61;51.01
31121;BME280;17770;45.966;13.632;2023-05-08T10:56:51;100827.81;;;24.62;50.86
31121;BME280;17770;45.966;13.632;2023-05-08T10:59:18;100827.09;;;24.60;51.16
31121;BME280;17770;45.966;13.632;2023-05-08T11:01:47;100832.34;;;24.60;50.92
31121;BME280;17770;45.966;13.632;2023-05-08T11:04:23;100831.50;;;24.60;51.18
31121;BME280;17770;45.966;13.632;2023-05-08T11:06:49;100829.84;;;24.59;51.08
31121;BME280;17770;45.966;13.632;2023-05-08T11:09:18;100829.72;;;24.60;51.21
31121;BME280;17770;45.966;13.632;2023-05-08T11:11:49;100832.34;;;24.60;51.19
31121;BME280;17770;45.966;13.632;2023-05-08T11:14:15;100829.00;;;24.58;50.91
31121;BME280;17770;45.966;13.632;2023-05-08T11:19:21;100829.59;;;24.62;50.69
31121;BME280;17770;45.966;13.632;2023-05-08T11:24:35;100833.91;;;24.63;51.13
31121;BME280;17770;45.966;13.632;2023-05-08T11:27:01;100834.75;;;24.63;51.16
31121;BME280;17770;45.966;13.632;2023-05-08T11:29:27;100839.31;;;24.61;51.15
31121;BME280;17770;45.966;13.632;2023-05-08T11:31:53;100835.84;;;24.61;50.95
31121;BME280;17770;45.966;13.632;2023-05-08T11:37:07;100841.00;;;24.62;50.99
31121;BME280;17770;45.966;13.632;2023-05-08T11:39:33;100845.31;;;24.63;50.79
31121;BME280;17770;45.966;13.632;2023-05-08T11:44:43;100848.91;;;24.62;51.30
31121;BME280;17770;45.966;13.632;2023-05-08T11:47:09;100849.72;;;24.63;51.08
31121;BME280;17770;45.966;13.632;2023-05-08T11:49:41;100843.75;;;24.61;50.94
31121;BME280;17770;45.966;13.632;2023-05-08T11:52:07;100839.31;;;24.61;51.36
31121;BME280;17770;45.966;13.632;2023-05-08T11:54:33;100843.50;;;24.64;50.93
31121;BME280;17770;45.966;13.632;2023-05-08T11:56:59;100852.38;;;24.63;50.80
31121;BME280;17770;45.966;13.632;2023-05-08T11:59:26;100856.69;;;24.64;51.17
31121;BME280;17770;45.966;13.632;2023-05-08T12:01:52;100846.75;;;24.67;51.17
31121;BME280;17770;45.966;13.632;2023-05-08T12:04:17;100852.38;;;24.63;51.26
31121;BME280;17770;45.966;13.632;2023-05-08T12:06:44;100842.41;;;24.66;50.64
31121;BME280;17770;45.966;13.632;2023-05-08T12:09:13;100849.63;;;24.64;51.15
31121;BME280;17770;45.966;13.632;2023-05-08T12:11:40;100861.13;;;24.63;51.21
31121;BME280;17770;45.966;13.632;2023-05-08T12:14:08;100855.97;;;24.62;51.23
31121;BME280;17770;45.966;13.632;2023-05-08T12:16:35;100854.31;;;24.61;51.55
31121;BME280;17770;45.966;13.632;2023-05-08T12:19:02;100855.00;;;24.63;51.16
31121;BME280;17770;45.966;13.632;2023-05-08T12:21:27;100855.00;;;24.63;51.15
31121;BME280;17770;45.966;13.632;2023-05-08T12:23:54;100851.56;;;24.62;51.31
31121;BME280;17770;45.966;13.632;2023-05-08T12:26:20;100848.91;;;24.62;51.31
31121;BME280;17770;45.966;13.632;2023-05-08T12:28:52;100852.50;;;24.61;51.00
31121;BME280;17770;45.966;13.632;2023-05-08T12:31:18;100853.34;;;24.62;51.32
31121;BME280;17770;45.966;13.632;2023-05-08T12:33:44;100848.91;;;24.62;51.41
31121;BME280;17770;45.966;13.632;2023-05-08T12:36:10;100860.28;;;24.63;51.07
31121;BME280;17770;45.966;13.632;2023-05-08T12:38:36;100862.09;;;24.62;51.24
31121;BME280;17770;45.966;13.632;2023-05-08T12:41:02;100859.47;;;24.62;50.89
31121;BME280;17770;45.966;13.632;2023-05-08T12:43:32;100858.63;;;24.62;51.21
31121;BME280;17770;45.966;13.632;2023-05-08T12:45:59;100863.03;;;24.61;50.99
31121;BME280;17770;45.966;13.632;2023-05-08T12:48:25;100859.47;;;24.62;51.20
31121;BME280;17770;45.966;13.632;2023-05-08T12:50:51;100866.53;;;24.62;50.81
31121;BME280;17770;45.966;13.632;2023-05-08T12:53:17;100856.81;;;24.62;50.97
31121;BME280;17770;45.966;13.632;2023-05-08T12:55:53;100854.78;;;24.66;51.01
31121;BME280;17770;45.966;13.632;2023-05-08T12:58:22;100851.31;;;24.65;50.95
31121;BME280;17770;45.966;13.632;2023-05-08T13:00:49;100854.06;;;24.64;51.08
31121;BME280;17770;45.966;13.632;2023-05-08T13:03:23;100849.50;;;24.66;50.94
31121;BME280;17770;45.966;13.632;2023-05-08T13:05:50;100852.97;;;24.66;50.89
31121;BME280;17770;45.966;13.632;2023-05-08T13:08:16;100848.53;;;24.67;50.81
31121;BME280;17770;45.966;13.632;2023-05-08T13:10:52;100847.69;;;24.66;50.94
31121;BME280;17770;45.966;13.632;2023-05-08T13:13:19;100856.34;;;24.68;50.89
31121;BME280;17770;45.966;13.632;2023-05-08T13:15:45;100848.44;;;24.68;51.11
31121;BME280;17770;45.966;13.632;2023-05-08T13:18:11;100847.69;;;24.66;51.19
31121;BME280;17770;45.966;13.632;2023-05-08T13:20:37;100846.75;;;24.67;50.83
31121;BME280;17770;45.966;13.632;2023-05-08T13:23:03;100845.91;;;24.67;51.21
31121;BME280;17770;45.966;13.632;2023-05-08T13:25:29;100843.25;;;24.67;50.86
31121;BME280;17770;45.966;13.632;2023-05-08T13:27:56;100838.75;;;24.69;50.75
31121;BME280;17770;45.966;13.632;2023-05-08T13:30:22;100839.69;;;24.68;51.06
31121;BME280;17770;45.966;13.632;2023-05-08T13:32:49;100841.47;;;24.67;51.19
31121;BME280;17770;45.966;13.632;2023-05-08T13:35:15;100841.59;;;24.66;51.12
31121;BME280;17770;45.966;13.632;2023-05-08T13:37:41;100837.97;;;24.67;51.00